createdAt,value
2019-05-12T00:50:28.616Z,0.00
2019-05-12T01:08:19.877Z,0.00
2019-05-12T01:09:19.891Z,0.00
2019-05-12T01:10:19.819Z,0.00
2019-05-12T01:11:20.513Z,0.00
2019-05-12T01:12:19.729Z,0.00
2019-05-12T01:13:19.698Z,0.00
2019-05-12T01:14:19.700Z,0.00
2019-05-12T01:15:19.511Z,0.00
2019-05-12T01:16:19.264Z,0.00
2019-05-12T01:17:19.254Z,0.00
2019-05-12T01:18:19.198Z,0.00
2019-05-12T01:19:19.177Z,0.00
2019-05-12T01:20:19.144Z,0.00
2019-05-12T01:21:19.127Z,0.00
2019-05-12T01:22:19.119Z,0.00
2019-05-12T01:23:23.053Z,0.00
2019-05-12T01:24:19.083Z,0.00
2019-05-12T01:25:19.086Z,0.00
2019-05-12T01:26:19.043Z,0.00
2019-05-12T01:27:19.054Z,0.00
2019-05-12T01:28:19.011Z,0.00
2019-05-12T01:29:18.972Z,0.00
2019-05-12T01:30:18.995Z,0.00
2019-05-12T01:31:18.981Z,0.00
2019-05-12T01:32:18.931Z,0.00
2019-05-12T01:33:18.893Z,0.00
2019-05-12T01:34:18.882Z,0.00
2019-05-12T01:35:18.881Z,0.00
2019-05-12T01:36:18.839Z,0.00
2019-05-12T01:37:18.840Z,0.00
2019-05-12T01:38:18.795Z,0.00
2019-05-12T01:39:18.921Z,0.00
2019-05-12T01:40:19.138Z,0.00
2019-05-12T01:41:18.762Z,0.00
2019-05-12T01:42:18.723Z,0.00
2019-05-12T01:43:21.225Z,0.00
2019-05-12T01:44:18.682Z,0.00
2019-05-12T01:45:18.678Z,0.00
2019-05-12T01:46:18.668Z,0.00
2019-05-12T01:47:18.871Z,0.00
2019-05-12T01:48:18.616Z,0.00
2019-05-12T01:49:18.834Z,0.00
2019-05-12T01:50:18.594Z,0.00
2019-05-12T01:51:18.569Z,0.00
2019-05-12T01:52:18.544Z,0.00
2019-05-12T01:53:18.515Z,0.00
2019-05-12T01:54:18.966Z,0.00
2019-05-12T01:55:18.693Z,0.00
2019-05-12T01:56:18.462Z,0.00
2019-05-12T01:57:18.924Z,0.00
2019-05-12T01:58:19.400Z,0.00
2019-05-12T01:59:18.601Z,0.00
2019-05-12T02:00:18.401Z,0.00
2019-05-12T02:01:18.528Z,0.00
2019-05-12T02:02:18.342Z,0.00
2019-05-12T02:03:18.341Z,0.00
2019-05-12T02:04:18.318Z,0.00
2019-05-12T02:05:18.411Z,0.00
2019-05-12T02:06:18.533Z,0.00
2019-05-12T02:07:18.586Z,0.00
2019-05-12T02:08:18.566Z,0.00
2019-05-12T02:09:18.660Z,0.00
2019-05-12T02:10:18.198Z,0.00
2019-05-12T02:11:18.468Z,0.00
2019-05-12T02:12:18.297Z,0.00
2019-05-12T02:13:18.326Z,0.00
2019-05-12T02:14:18.407Z,0.00
2019-05-12T02:15:18.448Z,0.00
2019-05-12T02:16:18.827Z,0.00
2019-05-12T02:17:18.072Z,0.00
2019-05-12T02:18:18.054Z,0.00
2019-05-12T02:19:18.021Z,0.00
2019-05-12T02:20:18.216Z,0.00
2019-05-12T02:21:18.840Z,0.00
2019-05-12T02:22:18.946Z,0.00
2019-05-12T02:23:17.969Z,0.00
2019-05-12T02:24:26.679Z,0.00
2019-05-12T02:25:18.621Z,0.00
2019-05-12T02:26:18.956Z,0.00
2019-05-12T02:27:17.948Z,0.00
2019-05-12T02:28:18.094Z,0.00
2019-05-12T02:29:18.413Z,0.00
2019-05-12T02:30:20.337Z,0.00
2019-05-12T02:31:20.599Z,0.00
2019-05-12T02:32:17.798Z,0.00
2019-05-12T02:36:15.079Z,0.00
2019-05-12T02:37:15.317Z,0.00
2019-05-12T02:38:14.433Z,0.00
2019-05-12T02:39:14.837Z,0.00
2019-05-12T03:11:35.523Z,0.00
2019-05-12T03:12:34.483Z,0.00
2019-05-12T03:57:16.814Z,16.00
2019-05-12T03:58:16.860Z,20.00
2019-05-12T03:59:16.855Z,20.00
2019-05-12T04:00:16.861Z,24.00
2019-05-12T04:01:16.785Z,28.00
2019-05-12T04:05:38.269Z,32.00
2019-05-12T04:17:18.725Z,60.00
2019-05-12T04:28:45.554Z,72.00
2019-05-12T04:34:06.893Z,76.00
2019-05-12T04:35:06.602Z,76.00
2019-05-12T04:36:06.318Z,80.00
2019-05-12T04:37:06.091Z,84.00
2019-05-12T04:38:06.102Z,88.00
2019-05-12T04:39:06.147Z,92.00
2019-05-12T04:40:06.072Z,92.00
2019-05-12T04:41:06.260Z,100.00
2019-05-12T04:42:05.943Z,104.00
2019-05-12T04:43:06.798Z,108.00
2019-05-12T04:44:06.370Z,116.00
2019-05-12T04:45:06.029Z,124.00
2019-05-12T04:48:27.886Z,152.00
2019-05-12T04:49:28.220Z,156.00
2019-05-12T05:59:50.398Z,876.00
2019-05-12T06:00:54.819Z,892.00
2019-05-12T06:03:48.092Z,880.00
2019-05-12T06:04:49.801Z,872.00
2019-05-12T06:05:48.047Z,872.00
2019-05-12T06:06:50.478Z,860.00
2019-05-12T06:07:47.987Z,860.00
2019-05-12T06:08:48.015Z,872.00
2019-05-12T06:09:47.928Z,900.00
2019-05-12T06:10:47.900Z,928.00
2019-05-12T06:11:47.905Z,944.00
2019-05-12T06:12:50.838Z,932.00
2019-05-12T06:13:47.858Z,908.00
2019-05-12T06:14:54.342Z,896.00
2019-05-12T06:15:47.845Z,884.00
2019-05-12T06:16:47.827Z,884.00
2019-05-12T06:17:47.775Z,880.00
2019-05-12T06:18:47.767Z,872.00
2019-05-12T06:19:47.833Z,860.00
2019-05-12T06:20:47.724Z,860.00
2019-05-12T06:21:47.727Z,864.00
2019-05-12T06:22:48.558Z,884.00
2019-05-12T06:23:47.671Z,896.00
2019-05-12T06:24:49.194Z,888.00
2019-05-12T06:33:44.814Z,840.00
2019-05-12T06:34:44.508Z,840.00
2019-05-12T07:00:35.567Z,1104.00
2019-05-12T07:01:35.398Z,1104.00
2019-05-12T07:02:44.578Z,1096.00
2019-05-12T07:03:37.155Z,1100.00
2019-05-12T07:04:35.290Z,1008.00
2019-05-12T07:05:38.392Z,1032.00
2019-05-12T07:06:34.886Z,1104.00
2019-05-12T07:07:41.880Z,1064.00
2019-05-12T07:08:38.319Z,992.00
2019-05-12T07:09:39.780Z,1128.00
2019-05-12T07:10:42.995Z,1188.00
2019-05-12T07:11:42.567Z,1060.00
2019-05-12T07:12:43.598Z,1144.00
2019-05-12T07:13:34.762Z,1212.00
2019-05-12T07:14:34.784Z,1068.00
2019-05-12T07:15:39.863Z,1028.00
2019-05-12T07:16:34.750Z,1172.00
2019-05-12T07:17:35.678Z,1172.00
2019-05-12T07:18:37.113Z,1048.00
2019-05-12T07:19:34.730Z,1092.00
2019-05-12T07:20:38.749Z,1084.00
2019-05-12T07:21:34.650Z,1128.00
2019-05-12T07:22:43.572Z,1168.00
2019-05-12T07:23:34.615Z,1160.00
2019-05-12T07:24:34.585Z,1148.00
2019-05-12T07:25:36.791Z,1112.00
2019-05-12T07:26:34.531Z,1004.00
2019-05-12T07:27:39.361Z,1080.00
2019-05-12T07:28:36.229Z,1204.00
2019-05-12T07:29:34.506Z,1200.00
2019-05-12T07:30:35.317Z,1100.00
2019-05-12T07:31:34.451Z,1056.00
2019-05-12T07:32:34.480Z,1104.00
2019-05-12T07:33:41.375Z,1052.00
2019-05-12T07:34:34.415Z,1064.00
2019-05-12T07:35:34.434Z,1128.00
2019-05-12T07:36:34.397Z,1176.00
2019-05-12T07:37:34.360Z,1192.00
2019-05-12T07:38:34.445Z,1168.00
2019-05-12T07:39:39.295Z,1164.00
2019-05-12T07:40:37.376Z,1044.00
2019-05-12T07:41:34.359Z,1032.00
2019-05-12T08:23:18.351Z,1560.00
2019-05-12T08:24:18.277Z,1476.00
2019-05-12T08:28:15.470Z,1480.00
2019-05-12T08:29:10.511Z,1488.00
2019-05-12T08:31:40.352Z,1592.00
2019-05-12T08:32:35.983Z,1644.00
2019-05-12T08:34:40.546Z,1664.00
2019-05-12T08:35:40.521Z,1692.00
2019-05-12T08:37:46.125Z,1676.00
2019-05-12T08:38:46.095Z,1604.00
2019-05-12T08:40:45.346Z,1744.00
2019-05-12T08:41:39.675Z,1772.00
2019-05-12T08:43:47.135Z,1980.00
2019-05-12T08:44:44.353Z,2064.00
2019-05-12T08:45:44.558Z,2016.00
2019-05-12T08:46:51.963Z,1836.00
2019-05-12T08:47:44.284Z,1640.00
2019-05-12T08:48:44.708Z,1640.00
2019-05-12T08:49:51.008Z,1616.00
2019-05-12T08:50:46.156Z,1428.00
2019-05-12T08:51:44.348Z,1268.00
2019-05-12T08:52:44.466Z,1304.00
2019-05-12T08:53:44.178Z,1380.00
2019-05-12T08:54:47.669Z,1296.00
2019-05-12T08:55:44.143Z,1204.00
2019-05-12T08:56:44.126Z,1244.00
2019-05-12T08:57:49.433Z,1404.00
2019-05-12T08:58:51.099Z,1480.00
2019-05-12T08:59:44.232Z,1428.00
2019-05-12T09:00:49.696Z,1444.00
2019-05-12T09:01:44.048Z,1464.00
2019-05-12T09:02:48.735Z,1480.00
2019-05-12T09:03:44.388Z,1424.00
2019-05-12T09:04:51.541Z,1412.00
2019-05-12T09:05:44.557Z,1404.00
2019-05-12T09:06:43.962Z,1520.00
2019-05-12T09:07:43.951Z,1508.00
2019-05-12T09:08:49.048Z,1544.00
2019-05-12T09:09:44.030Z,1704.00
2019-05-12T09:10:45.193Z,1932.00
2019-05-12T09:11:44.170Z,2016.00
2019-05-12T09:12:44.212Z,2220.00
2019-05-12T09:13:44.106Z,2300.00
2019-05-12T09:14:46.106Z,2376.00
2019-05-12T09:15:43.988Z,2352.00
2019-05-12T09:16:44.045Z,2528.00
2019-05-12T09:17:52.674Z,2668.00
2019-05-12T09:18:43.777Z,2800.00
2019-05-12T09:19:43.781Z,2864.00
2019-05-12T09:20:48.716Z,2952.00
2019-05-12T09:21:44.353Z,2928.00
2019-05-12T09:22:43.715Z,2956.00
2019-05-12T09:23:45.660Z,2816.00
2019-05-12T09:24:44.140Z,2792.00
2019-05-12T09:25:46.818Z,3152.00
2019-05-12T09:26:43.662Z,3568.00
2019-05-12T09:27:48.055Z,3840.00
2019-05-12T09:28:49.863Z,3644.00
2019-05-12T09:29:43.671Z,5832.00
2019-05-12T09:30:45.869Z,6816.00
2019-05-12T09:31:44.027Z,7248.00
2019-05-12T09:32:48.249Z,10936.00
2019-05-12T09:33:44.569Z,8720.00
2019-05-12T09:34:46.882Z,5004.00
2019-05-12T09:35:43.944Z,11096.00
2019-05-12T09:36:44.244Z,8668.00
2019-05-12T09:37:44.128Z,11168.00
2019-05-12T09:38:43.998Z,5084.00
2019-05-12T09:39:47.411Z,5676.00
2019-05-12T09:40:43.886Z,4376.00
2019-05-12T09:41:49.465Z,8156.00
2019-05-12T09:42:44.085Z,5708.00
2019-05-12T09:43:48.915Z,4656.00
2019-05-12T09:44:43.894Z,9280.00
2019-05-12T09:45:51.635Z,8636.00
2019-05-12T09:46:44.003Z,9484.00
2019-05-12T09:47:43.744Z,8964.00
2019-05-12T09:48:51.901Z,8736.00
2019-05-12T09:49:44.438Z,7144.00
2019-05-12T09:50:46.245Z,8612.00
2019-05-12T09:51:45.926Z,8612.00
2019-05-12T09:52:44.128Z,8504.00
2019-05-12T09:53:51.024Z,6968.00
2019-05-12T09:54:44.460Z,8440.00
2019-05-12T09:55:43.898Z,8700.00
2019-05-12T09:56:44.123Z,9248.00
2019-05-12T09:57:45.134Z,9328.00
2019-05-12T09:58:43.711Z,9904.00
2019-05-12T09:59:45.905Z,3504.00
2019-05-12T10:00:43.505Z,4084.00
2019-05-12T10:01:45.945Z,3132.00
2019-05-12T10:02:43.684Z,3228.00
2019-05-12T10:03:43.727Z,3716.00
2019-05-12T10:04:43.762Z,3188.00
2019-05-12T10:05:44.178Z,2932.00
2019-05-12T10:06:44.421Z,3156.00
2019-05-12T10:07:44.548Z,2980.00
2019-05-12T10:08:43.569Z,3856.00
2019-05-12T10:09:44.012Z,4656.00
2019-05-12T10:10:46.733Z,4720.00
2019-05-12T10:11:44.736Z,4612.00
2019-05-12T10:12:46.460Z,8152.00
2019-05-12T10:13:44.960Z,3516.00
2019-05-12T10:14:45.875Z,5472.00
2019-05-12T10:15:43.088Z,10212.00
2019-05-12T10:16:45.708Z,10240.00
2019-05-12T10:17:43.509Z,10908.00
2019-05-12T10:18:51.025Z,4112.00
2019-05-12T10:19:43.464Z,3400.00
2019-05-12T10:20:44.055Z,3312.00
2019-05-12T10:21:43.993Z,3728.00
2019-05-12T10:22:43.747Z,3020.00
2019-05-12T10:23:43.614Z,3404.00
2019-05-12T10:24:54.632Z,3776.00
2019-05-12T10:25:44.717Z,9196.00
2019-05-12T10:26:48.749Z,9988.00
2019-05-12T10:27:44.334Z,9332.00
2019-05-12T10:28:51.515Z,9228.00
2019-05-12T10:29:43.691Z,9040.00
2019-05-12T10:30:47.185Z,9452.00
2019-05-12T10:31:44.516Z,9648.00
2019-05-12T10:32:43.598Z,10052.00
2019-05-12T10:33:43.359Z,10844.00
2019-05-12T10:34:44.367Z,10692.00
2019-05-12T10:35:43.912Z,10488.00
2019-05-12T10:36:44.902Z,10432.00
2019-05-12T10:37:43.706Z,10700.00
2019-05-12T10:38:43.435Z,10548.00
2019-05-12T10:39:42.884Z,5552.00
2019-05-12T10:40:44.435Z,3980.00
2019-05-12T10:41:43.692Z,5068.00
2019-05-12T10:42:46.115Z,4720.00
2019-05-12T10:43:43.397Z,3232.00
2019-05-12T10:44:43.730Z,9524.00
2019-05-12T10:45:44.182Z,9532.00
2019-05-12T10:46:42.829Z,9532.00
2019-05-12T10:47:42.827Z,3108.00
2019-05-12T10:48:44.321Z,2836.00
2019-05-12T10:49:44.150Z,2904.00
2019-05-12T10:50:44.317Z,3408.00
2019-05-12T10:51:44.140Z,3404.00
2019-05-12T10:52:44.003Z,3180.00
2019-05-12T10:53:43.257Z,3084.00
2019-05-12T10:54:43.450Z,3172.00
2019-05-12T10:55:44.062Z,3372.00
2019-05-12T10:56:43.833Z,3896.00
2019-05-12T10:57:43.895Z,10276.00
2019-05-12T10:58:43.980Z,10168.00
2019-05-12T10:59:45.264Z,3936.00
2019-05-12T11:00:44.379Z,8812.00
2019-05-12T11:01:47.229Z,4476.00
2019-05-12T11:02:42.716Z,5452.00
2019-05-12T11:03:50.660Z,10020.00
2019-05-12T11:04:43.977Z,9956.00
2019-05-12T11:05:44.088Z,9768.00
2019-05-12T11:06:44.741Z,9488.00
2019-05-12T11:07:43.580Z,9272.00
2019-05-12T11:08:47.400Z,9180.00
2019-05-12T11:09:43.942Z,9156.00
2019-05-12T11:10:42.684Z,9520.00
2019-05-12T11:11:46.773Z,9904.00
2019-05-12T11:12:44.187Z,10032.00
2019-05-12T11:13:48.609Z,10016.00
2019-05-12T11:14:43.884Z,10780.00
2019-05-12T11:15:47.771Z,6744.00
2019-05-12T11:16:44.587Z,10844.00
2019-05-12T11:17:46.066Z,4988.00
2019-05-12T11:18:43.720Z,3228.00
2019-05-12T11:19:47.109Z,3236.00
2019-05-12T11:20:44.854Z,3728.00
2019-05-12T11:21:44.337Z,3140.00
2019-05-12T11:22:43.902Z,3180.00
2019-05-12T11:23:43.637Z,10208.00
2019-05-12T11:24:44.441Z,10076.00
2019-05-12T11:25:43.977Z,9916.00
2019-05-12T11:26:43.245Z,10060.00
2019-05-12T11:27:43.685Z,2700.00
2019-05-12T11:28:42.568Z,2400.00
2019-05-12T11:29:48.593Z,9604.00
2019-05-12T11:30:43.637Z,3048.00
2019-05-12T11:31:44.098Z,2976.00
2019-05-12T11:32:44.203Z,10060.00
2019-05-12T11:33:43.611Z,9772.00
2019-05-12T11:34:44.373Z,9696.00
2019-05-12T11:35:43.507Z,9720.00
2019-05-12T11:36:43.768Z,9952.00
2019-05-12T11:37:42.529Z,9720.00
2019-05-12T11:38:44.352Z,9960.00
2019-05-12T11:39:45.251Z,10304.00
2019-05-12T11:40:43.721Z,10852.00
2019-05-12T11:41:44.231Z,11088.00
2019-05-12T11:42:46.837Z,11004.00
2019-05-12T11:43:42.497Z,10760.00
2019-05-12T11:44:44.308Z,10776.00
2019-05-12T11:45:44.222Z,10940.00
2019-05-12T11:46:44.126Z,10936.00
2019-05-12T11:47:44.642Z,10868.00
2019-05-12T11:48:46.311Z,10880.00
2019-05-12T11:49:44.164Z,8940.00
2019-05-12T11:50:49.504Z,10364.00
2019-05-12T11:51:42.510Z,11316.00
2019-05-12T11:52:46.057Z,12240.00
2019-05-12T11:53:44.548Z,11312.00
2019-05-12T11:54:47.186Z,2596.00
2019-05-12T11:55:43.814Z,2488.00
2019-05-12T11:56:46.613Z,12464.00
2019-05-12T11:57:43.774Z,9224.00
2019-05-12T11:58:47.415Z,3392.00
2019-05-12T11:59:43.451Z,13112.00
2019-05-12T12:00:44.127Z,12852.00
2019-05-12T12:01:47.435Z,13164.00
2019-05-12T12:02:43.741Z,13628.00
2019-05-12T12:03:44.047Z,13832.00
2019-05-12T12:04:43.518Z,14136.00
2019-05-12T12:05:44.278Z,14168.00
2019-05-12T12:06:43.807Z,14240.00
2019-05-12T12:07:49.072Z,14300.00
2019-05-12T12:08:44.169Z,14452.00
2019-05-12T12:09:43.852Z,14552.00
2019-05-12T12:10:42.443Z,14556.00
2019-05-12T12:11:43.339Z,14708.00
2019-05-12T12:12:45.305Z,14844.00
2019-05-12T12:13:42.457Z,15056.00
2019-05-12T12:14:46.240Z,15328.00
2019-05-12T12:15:42.449Z,14088.00
2019-05-12T12:16:50.199Z,16000.00
2019-05-12T12:17:44.149Z,9560.00
2019-05-12T12:18:48.610Z,16032.00
2019-05-12T12:19:46.701Z,11940.00
2019-05-12T12:20:44.263Z,9524.00
2019-05-12T12:21:48.054Z,16640.00
2019-05-12T12:22:43.434Z,16512.00
2019-05-12T12:23:48.817Z,16576.00
2019-05-12T12:24:43.644Z,16800.00
2019-05-12T12:25:43.079Z,17376.00
2019-05-12T12:26:44.590Z,17088.00
2019-05-12T12:27:44.249Z,17344.00
2019-05-12T12:28:43.499Z,8424.00
2019-05-12T12:29:43.861Z,13700.00
2019-05-12T12:30:47.471Z,7800.00
2019-05-12T12:31:43.394Z,2808.00
2019-05-12T12:32:44.353Z,4292.00
2019-05-12T12:33:46.867Z,17504.00
2019-05-12T12:34:44.047Z,11780.00
2019-05-12T12:35:44.352Z,16928.00
2019-05-12T12:36:43.564Z,17344.00
2019-05-12T12:37:44.838Z,17056.00
2019-05-12T12:38:43.984Z,17024.00
2019-05-12T12:39:43.473Z,16800.00
2019-05-12T12:40:44.186Z,17888.00
2019-05-12T12:41:45.669Z,3912.00
2019-05-12T12:42:47.050Z,18112.00
2019-05-12T12:43:43.267Z,17920.00
2019-05-12T12:44:42.482Z,17824.00
2019-05-12T12:45:43.449Z,17536.00
2019-05-12T12:46:44.061Z,17536.00
2019-05-12T12:47:44.407Z,17440.00
2019-05-12T12:48:43.946Z,17472.00
2019-05-12T12:49:47.570Z,17504.00
2019-05-12T12:50:44.409Z,17568.00
2019-05-12T12:51:43.561Z,17504.00
2019-05-12T12:52:44.801Z,17408.00
2019-05-12T12:53:43.769Z,17472.00
2019-05-12T12:54:43.852Z,17536.00
2019-05-12T12:55:43.716Z,17536.00
2019-05-12T12:56:42.523Z,17728.00
2019-05-12T12:57:46.467Z,17856.00
2019-05-12T12:58:43.977Z,17888.00
2019-05-12T12:59:50.997Z,17920.00
2019-05-12T13:00:47.397Z,18112.00
2019-05-12T13:01:44.275Z,17984.00
2019-05-12T13:02:45.080Z,17760.00
2019-05-12T13:03:43.496Z,17888.00
2019-05-12T13:04:46.050Z,17792.00
2019-05-12T13:05:43.896Z,17856.00
2019-05-12T13:06:43.777Z,17728.00
2019-05-12T13:07:43.949Z,18624.00
2019-05-12T13:08:43.414Z,16672.00
2019-05-12T13:09:44.107Z,17504.00
2019-05-12T13:10:47.222Z,17536.00
2019-05-12T13:11:44.450Z,17632.00
2019-05-12T13:12:43.706Z,6952.00
2019-05-12T13:13:42.590Z,5424.00
2019-05-12T13:14:44.333Z,18336.00
2019-05-12T13:15:44.408Z,5580.00
2019-05-12T13:16:43.715Z,17152.00
2019-05-12T13:17:44.739Z,17472.00
2019-05-12T13:18:43.505Z,17152.00
2019-05-12T13:19:43.684Z,3324.00
2019-05-12T13:20:43.591Z,17280.00
2019-05-12T13:21:43.938Z,9564.00
2019-05-12T13:22:44.403Z,9104.00
2019-05-12T13:23:45.269Z,17568.00
2019-05-12T13:24:43.956Z,17216.00
2019-05-12T13:25:48.372Z,16800.00
2019-05-12T13:26:43.550Z,16608.00
2019-05-12T13:27:42.633Z,16480.00
2019-05-12T13:28:45.528Z,16416.00
2019-05-12T13:29:42.642Z,16640.00
2019-05-12T13:30:47.176Z,16832.00
2019-05-12T13:31:46.479Z,16768.00
2019-05-12T13:32:44.190Z,17056.00
2019-05-12T13:33:44.248Z,15132.00
2019-05-12T13:34:43.024Z,16288.00
2019-05-12T13:35:43.484Z,16064.00
2019-05-12T13:36:44.010Z,16032.00
2019-05-12T13:37:43.287Z,16032.00
2019-05-12T13:38:44.292Z,14568.00
2019-05-12T13:39:55.174Z,16032.00
2019-05-12T13:40:44.198Z,15712.00
2019-05-12T13:41:43.778Z,16160.00
2019-05-12T13:42:43.782Z,14516.00
2019-05-12T13:43:42.688Z,16288.00
2019-05-12T13:44:43.615Z,16512.00
2019-05-12T13:45:43.968Z,16288.00
2019-05-12T13:46:43.757Z,15808.00
2019-05-12T13:47:43.976Z,15776.00
2019-05-12T13:48:43.399Z,15332.00
2019-05-12T13:49:47.272Z,15308.00
2019-05-12T13:50:43.308Z,15216.00
2019-05-12T13:51:42.965Z,15168.00
2019-05-12T13:52:42.716Z,15076.00
2019-05-12T13:53:46.513Z,14592.00
2019-05-12T13:54:43.703Z,14612.00
2019-05-12T13:55:47.546Z,14532.00
2019-05-12T13:56:44.348Z,14556.00
2019-05-12T13:57:52.323Z,14808.00
2019-05-12T13:58:45.703Z,9664.00
2019-05-12T13:59:43.493Z,14960.00
2019-05-12T14:00:50.910Z,14568.00
2019-05-12T14:01:45.505Z,14312.00
2019-05-12T14:02:44.232Z,14096.00
2019-05-12T14:03:48.674Z,13972.00
2019-05-12T14:04:44.425Z,13912.00
2019-05-12T14:05:50.546Z,13808.00
2019-05-12T14:06:42.763Z,13636.00
2019-05-12T14:07:43.681Z,13616.00
2019-05-12T14:08:44.511Z,10588.00
2019-05-12T14:09:43.726Z,3864.00
2019-05-12T14:10:44.755Z,13296.00
2019-05-12T14:11:43.754Z,13184.00
2019-05-12T14:12:43.887Z,13144.00
2019-05-12T14:13:42.793Z,12884.00
2019-05-12T14:14:43.688Z,12640.00
2019-05-12T14:15:44.349Z,12260.00
2019-05-12T14:16:44.647Z,13336.00
2019-05-12T14:17:43.583Z,12948.00
2019-05-12T14:18:44.165Z,12972.00
2019-05-12T14:19:43.769Z,12736.00
2019-05-12T14:20:44.872Z,1640.00
2019-05-12T14:21:42.795Z,1712.00
2019-05-12T14:22:44.757Z,12428.00
2019-05-12T14:23:43.664Z,12148.00
2019-05-12T14:24:46.734Z,11976.00
2019-05-12T14:25:43.741Z,11852.00
2019-05-12T14:26:47.537Z,11748.00
2019-05-12T14:27:44.321Z,11608.00
2019-05-12T14:28:45.516Z,11452.00
2019-05-12T14:29:44.098Z,11396.00
2019-05-12T14:30:47.370Z,11440.00
2019-05-12T14:31:51.060Z,11476.00
2019-05-12T14:32:44.058Z,11428.00
2019-05-12T14:33:44.214Z,11464.00
2019-05-12T14:34:43.398Z,11320.00
2019-05-12T14:35:45.311Z,11248.00
2019-05-12T14:36:43.310Z,11104.00
2019-05-12T14:37:45.830Z,11056.00
2019-05-12T14:38:42.801Z,10908.00
2019-05-12T14:39:46.220Z,10788.00
2019-05-12T14:40:42.817Z,10680.00
2019-05-12T14:41:52.834Z,10580.00
2019-05-12T14:42:44.236Z,10436.00
2019-05-12T14:43:47.523Z,10240.00
2019-05-12T14:44:44.963Z,10132.00
2019-05-12T14:45:44.011Z,10248.00
2019-05-12T14:46:46.356Z,10312.00
2019-05-12T14:47:43.678Z,9380.00
2019-05-12T14:48:46.454Z,1576.00
2019-05-12T14:49:43.594Z,9928.00
2019-05-12T14:50:44.153Z,10000.00
2019-05-12T14:51:44.270Z,10124.00
2019-05-12T14:52:43.990Z,9396.00
2019-05-12T14:53:46.065Z,2224.00
2019-05-12T14:54:43.558Z,5192.00
2019-05-12T14:55:42.805Z,9332.00
2019-05-12T14:56:47.147Z,9136.00
2019-05-12T14:57:42.792Z,9080.00
2019-05-12T14:58:44.205Z,8856.00
2019-05-12T14:59:42.797Z,8716.00
2019-05-12T15:00:44.560Z,8592.00
2019-05-12T15:01:56.918Z,8288.00
2019-05-12T15:02:43.737Z,8312.00
2019-05-12T15:03:47.814Z,8688.00
2019-05-12T15:04:43.581Z,4636.00
2019-05-12T15:05:47.381Z,1472.00
2019-05-12T15:06:44.343Z,1520.00
2019-05-12T15:07:51.198Z,1584.00
2019-05-12T15:08:43.642Z,1596.00
2019-05-12T15:09:42.766Z,8796.00
2019-05-12T15:10:42.784Z,8836.00
2019-05-12T15:11:43.744Z,4248.00
2019-05-12T15:12:44.140Z,1232.00
2019-05-12T15:13:43.696Z,1220.00
2019-05-12T15:14:43.853Z,1416.00
2019-05-12T15:15:44.060Z,8832.00
2019-05-12T15:16:44.784Z,8592.00
2019-05-12T15:17:44.379Z,7884.00
2019-05-12T15:18:46.812Z,6732.00
2019-05-12T15:19:44.057Z,5464.00
2019-05-12T15:20:49.975Z,4548.00
2019-05-12T15:21:43.691Z,3260.00
2019-05-12T15:22:51.247Z,3128.00
2019-05-12T15:23:44.125Z,3320.00
2019-05-12T15:24:44.135Z,3244.00
2019-05-12T15:25:43.312Z,3256.00
2019-05-12T15:26:42.685Z,3260.00
2019-05-12T15:27:46.052Z,3292.00
2019-05-12T15:28:43.412Z,3364.00
2019-05-12T15:29:43.145Z,3392.00
2019-05-12T15:30:43.640Z,1180.00
2019-05-12T15:31:53.127Z,1168.00
2019-05-12T15:32:42.649Z,1260.00
2019-05-12T15:33:43.965Z,1296.00
2019-05-12T15:34:44.153Z,1320.00
2019-05-12T15:35:43.915Z,1236.00
2019-05-12T15:36:45.902Z,1136.00
2019-05-12T15:37:43.707Z,1092.00
2019-05-12T15:38:43.703Z,1084.00
2019-05-12T15:39:44.034Z,1100.00
2019-05-12T15:40:43.397Z,1152.00
2019-05-12T15:41:42.589Z,1104.00
2019-05-12T15:42:44.969Z,1036.00
2019-05-12T15:43:44.418Z,1016.00
2019-05-12T15:44:43.339Z,996.00
2019-05-12T15:45:43.644Z,1184.00
2019-05-12T15:46:46.002Z,1236.00
2019-05-12T15:47:44.556Z,1324.00
2019-05-12T15:48:44.498Z,1312.00
2019-05-12T15:49:44.269Z,1268.00
2019-05-12T15:50:45.553Z,1068.00
2019-05-12T15:51:53.117Z,1080.00
2019-05-12T15:52:45.394Z,1156.00
2019-05-12T15:53:44.557Z,1124.00
2019-05-12T15:54:47.188Z,1248.00
2019-05-12T15:55:43.474Z,1200.00
2019-05-12T15:56:42.410Z,1180.00
2019-05-12T15:57:44.015Z,1160.00
2019-05-12T15:58:44.159Z,1124.00
2019-05-12T15:59:43.495Z,1032.00
2019-05-12T16:00:43.857Z,1076.00
2019-05-12T16:01:43.916Z,1096.00
2019-05-12T16:02:44.258Z,964.00
2019-05-12T16:03:43.834Z,1064.00
2019-05-12T16:04:44.545Z,1048.00
2019-05-12T16:05:44.374Z,912.00
2019-05-12T16:06:52.615Z,896.00
2019-05-12T16:07:43.639Z,856.00
2019-05-12T16:08:42.272Z,940.00
2019-05-12T16:09:45.385Z,920.00
2019-05-12T16:10:42.244Z,908.00
2019-05-12T16:11:42.236Z,888.00
2019-05-12T16:12:43.422Z,860.00
2019-05-12T16:13:44.909Z,852.00
2019-05-12T16:14:44.108Z,792.00
2019-05-12T16:15:43.835Z,788.00
2019-05-12T16:16:42.881Z,800.00
2019-05-12T16:17:44.075Z,892.00
2019-05-12T16:18:46.685Z,904.00
2019-05-12T16:19:43.819Z,916.00
2019-05-12T16:20:44.203Z,928.00
2019-05-12T16:21:45.338Z,924.00
2019-05-12T16:22:44.896Z,920.00
2019-05-12T16:23:44.515Z,912.00
2019-05-12T16:24:43.285Z,900.00
2019-05-12T16:25:42.054Z,880.00
2019-05-12T16:26:45.368Z,868.00
2019-05-12T16:27:44.185Z,852.00
2019-05-12T16:28:44.005Z,848.00
2019-05-12T16:29:45.554Z,820.00
2019-05-12T16:30:43.901Z,764.00
2019-05-12T16:31:45.597Z,756.00
2019-05-12T16:32:46.974Z,748.00
2019-05-12T16:33:43.645Z,744.00
2019-05-12T16:34:44.930Z,784.00
2019-05-12T16:35:44.117Z,772.00
2019-05-12T16:36:47.476Z,764.00
2019-05-12T16:37:43.987Z,764.00
2019-05-12T16:38:44.364Z,764.00
2019-05-12T16:39:46.869Z,768.00
2019-05-12T16:40:45.549Z,784.00
2019-05-12T16:41:43.863Z,788.00
2019-05-12T16:42:48.303Z,776.00
2019-05-12T16:43:44.019Z,716.00
2019-05-12T16:44:43.841Z,720.00
2019-05-12T16:45:41.786Z,704.00
2019-05-12T16:46:41.769Z,668.00
2019-05-12T16:47:41.772Z,688.00
2019-05-12T16:48:42.248Z,684.00
2019-05-12T16:49:44.062Z,668.00
2019-05-12T16:50:43.724Z,664.00
2019-05-12T16:51:43.702Z,664.00
2019-05-12T16:52:42.825Z,672.00
2019-05-12T16:53:43.633Z,672.00
2019-05-12T16:54:43.815Z,672.00
2019-05-12T16:55:46.504Z,664.00
2019-05-12T16:56:43.370Z,652.00
2019-05-12T16:57:47.535Z,636.00
2019-05-12T16:58:43.375Z,640.00
2019-05-12T16:59:41.596Z,640.00
2019-05-12T17:00:45.185Z,632.00
2019-05-12T17:01:43.756Z,632.00
2019-05-12T17:02:42.283Z,636.00
2019-05-12T17:03:41.553Z,624.00
2019-05-12T17:04:41.522Z,644.00
2019-05-12T17:05:41.512Z,664.00
2019-05-12T17:06:43.262Z,636.00
2019-05-12T17:07:43.907Z,636.00
2019-05-12T17:08:43.694Z,640.00
2019-05-12T17:09:43.357Z,640.00
2019-05-12T17:10:46.990Z,672.00
2019-05-12T17:11:46.693Z,672.00
2019-05-12T17:12:43.688Z,664.00
2019-05-12T17:13:47.351Z,656.00
2019-05-12T17:14:48.091Z,648.00
2019-05-12T17:15:43.367Z,640.00
2019-05-12T17:16:45.124Z,624.00
2019-05-12T17:17:41.338Z,612.00
2019-05-12T17:18:41.326Z,600.00
2019-05-12T17:19:43.379Z,588.00
2019-05-12T17:20:47.002Z,572.00
2019-05-12T17:21:41.288Z,560.00
2019-05-12T17:22:45.776Z,556.00
2019-05-12T17:23:41.258Z,552.00
2019-05-12T17:24:41.274Z,572.00
2019-05-12T17:25:41.226Z,628.00
2019-05-12T17:26:41.235Z,696.00
2019-05-12T17:27:41.222Z,728.00
2019-05-12T17:28:43.474Z,740.00
2019-05-12T17:29:43.379Z,740.00
2019-05-12T17:30:43.535Z,696.00
2019-05-12T17:31:41.143Z,656.00
2019-05-12T17:32:54.899Z,612.00
2019-05-12T17:33:41.116Z,572.00
2019-05-12T17:34:45.843Z,548.00
2019-05-12T17:35:41.082Z,520.00
2019-05-12T17:36:41.120Z,508.00
2019-05-12T17:37:41.516Z,488.00
2019-05-12T17:38:41.046Z,492.00
2019-05-12T17:39:41.047Z,508.00
2019-05-12T17:40:41.021Z,516.00
2019-05-12T17:41:44.993Z,508.00
2019-05-12T17:42:41.016Z,484.00